Time;durP1;ratioP1;P1;durP2;ratioP2;P2;SDS_P1;SDS_P2;PMS_P1;PMS_P2;Temp;Humidity;BMP_temperature;BMP_pressure;BME280_temperature;BME280_humidity;BME280_pressure;Samples;Min_cycle;Max_cycle;Signal;HPM_P1;HPM_P2
2022/01/08 00:00:27;;;;;;;18.03;13.07;;;2.00;99.90;;;;;;5035259;28;20210;-61
2022/01/08 00:02:53;;;;;;;21.55;13.80;;;1.90;99.90;;;;;;5036162;28;20635;-60
2022/01/08 00:05:18;;;;;;;20.90;13.10;;;1.90;99.90;;;;;;5024548;28;20265;-59
2022/01/08 00:07:45;;;;;;;20.57;12.27;;;1.90;99.90;;;;;;5039476;28;20425;-61
2022/01/08 00:10:10;;;;;;;20.20;12.65;;;1.90;99.90;;;;;;5029881;28;20422;-60
2022/01/08 00:12:36;;;;;;;17.70;11.97;;;1.90;99.90;;;;;;5028287;28;20193;-60
2022/01/08 00:15:04;;;;;;;18.87;12.00;;;1.90;99.90;;;;;;5027368;28;20575;-61
2022/01/08 00:17:30;;;;;;;20.52;12.00;;;1.90;99.90;;;;;;5027591;28;20951;-57
2022/01/08 00:19:55;;;;;;;16.10;11.37;;;2.00;99.90;;;;;;5024818;28;20183;-61
2022/01/08 00:22:21;;;;;;;17.47;12.40;;;2.00;99.90;;;;;;5038987;28;20214;-61
2022/01/08 00:24:47;;;;;;;16.37;10.80;;;2.10;99.90;;;;;;5033394;28;20182;-61
2022/01/08 00:27:12;;;;;;;17.67;12.30;;;2.10;99.90;;;;;;5031824;28;20187;-61
2022/01/08 00:29:40;;;;;;;18.47;12.37;;;2.10;99.90;;;;;;5031509;28;20465;-61
2022/01/08 00:32:06;;;;;;;16.67;11.63;;;2.10;99.90;;;;;;5016136;28;20237;-61
2022/01/08 00:34:31;;;;;;;18.30;12.45;;;2.20;99.90;;;;;;5028334;28;20183;-60
2022/01/08 00:36:57;;;;;;;16.07;12.07;;;2.20;99.90;;;;;;5025708;28;20190;-62
2022/01/08 00:39:22;;;;;;;15.50;11.80;;;2.20;99.90;;;;;;5030816;28;20195;-60
2022/01/08 00:41:48;;;;;;;17.03;12.20;;;2.30;99.90;;;;;;5034349;28;20649;-59
2022/01/08 00:44:16;;;;;;;16.50;12.70;;;2.30;99.90;;;;;;5035434;28;20737;-60
2022/01/08 00:46:42;;;;;;;19.08;12.88;;;2.40;99.90;;;;;;5026107;28;20261;-59
2022/01/08 00:49:08;;;;;;;20.13;13.10;;;2.40;99.90;;;;;;5028025;28;20176;-59
2022/01/08 00:51:33;;;;;;;16.50;12.13;;;2.40;99.90;;;;;;5027167;28;20602;-60
2022/01/08 00:53:59;;;;;;;17.43;11.70;;;2.40;99.90;;;;;;5028115;28;20186;-59
2022/01/08 00:56:24;;;;;;;18.97;11.90;;;2.30;99.90;;;;;;5026699;28;20815;-59
2022/01/08 00:58:50;;;;;;;19.90;12.53;;;2.40;99.90;;;;;;5024930;28;20221;-59
2022/01/08 01:01:15;;;;;;;18.33;13.77;;;2.40;99.90;;;;;;5026043;28;20213;-59
2022/01/08 01:03:41;;;;;;;19.73;11.80;;;2.50;99.90;;;;;;5025452;28;20171;-60
2022/01/08 01:06:06;;;;;;;19.63;12.73;;;2.50;99.90;;;;;;5024522;28;20187;-60
2022/01/08 01:08:33;;;;;;;20.43;12.80;;;2.50;99.90;;;;;;5027853;28;20274;-60
2022/01/08 01:10:59;;;;;;;17.73;12.05;;;2.60;99.90;;;;;;5028778;28;20170;-60
2022/01/08 01:13:25;;;;;;;16.50;12.57;;;2.60;99.90;;;;;;5027276;28;20187;-60
2022/01/08 01:15:50;;;;;;;18.80;13.40;;;2.60;99.90;;;;;;5030838;28;20190;-59
2022/01/08 01:18:16;;;;;;;16.20;11.70;;;2.60;99.90;;;;;;5026161;28;20213;-59
2022/01/08 01:20:42;;;;;;;18.00;11.50;;;2.60;99.90;;;;;;5030056;28;20195;-60
2022/01/08 01:23:19;;;;;;;17.10;11.70;;;2.60;99.90;;;;;;5025334;28;20234;-59
2022/01/08 01:25:52;;;;;;;15.75;11.32;;;2.60;99.90;;;;;;5049282;28;20440;-53
2022/01/08 01:47:02;;;;;;;14.68;10.30;;;2.40;99.90;;;;;;5029776;28;20548;-59
2022/01/08 01:49:38;;;;;;;14.65;10.35;;;2.30;99.90;;;;;;5030377;28;20281;-60
2022/01/08 01:52:06;;;;;;;17.00;11.40;;;2.20;99.90;;;;;;5028036;28;20199;-59
2022/01/08 01:54:34;;;;;;;15.85;10.98;;;2.10;99.90;;;;;;5029790;28;20223;-55
2022/01/08 01:57:02;;;;;;;14.40;10.75;;;2.10;99.90;;;;;;5028921;28;20194;-55
2022/01/08 01:59:30;;;;;;;16.48;10.23;;;2.00;99.90;;;;;;5028589;28;20305;-60
2022/01/08 02:01:57;;;;;;;14.77;10.05;;;2.00;99.90;;;;;;5027244;28;20257;-60
2022/01/08 02:04:22;;;;;;;15.38;10.18;;;1.90;99.90;;;;;;5029765;28;20187;-60
2022/01/08 02:06:48;;;;;;;17.03;11.37;;;1.80;99.90;;;;;;5027220;28;20640;-60
2022/01/08 02:09:14;;;;;;;16.70;10.20;;;1.80;99.90;;;;;;5035836;28;20182;-60
2022/01/08 02:12:02;;;;;;;17.20;11.17;;;1.70;99.90;;;;;;5030845;28;20449;-60
2022/01/08 02:14:29;;;;;;;13.95;9.93;;;1.70;99.90;;;;;;5033009;28;20564;-60
2022/01/08 02:16:58;;;;;;;16.27;10.25;;;1.60;99.90;;;;;;5029981;28;20704;-60
2022/01/08 02:19:25;;;;;;;14.77;9.32;;;1.60;99.90;;;;;;5027565;28;20265;-60
2022/01/08 02:21:53;;;;;;;14.32;10.60;;;1.50;99.90;;;;;;5043773;28;20221;-60
2022/01/08 02:24:20;;;;;;;15.48;10.00;;;1.50;99.90;;;;;;5034527;28;20190;-60
2022/01/08 02:26:45;;;;;;;15.63;10.52;;;1.50;99.90;;;;;;5021200;28;22015;-60
2022/01/08 02:29:15;;;;;;;14.90;10.20;;;1.40;99.90;;;;;;5027821;28;20257;-60
2022/01/08 02:31:51;;;;;;;14.27;9.60;;;1.40;99.90;;;;;;5027324;28;20198;-54
2022/01/08 02:34:16;;;;;;;14.38;10.20;;;1.40;99.90;;;;;;5028741;28;20281;-60
2022/01/08 02:36:42;;;;;;;15.63;10.77;;;1.30;99.90;;;;;;5026315;28;20266;-61
2022/01/08 02:39:08;;;;;;;16.90;11.10;;;1.30;99.90;;;;;;5029998;28;20193;-60
2022/01/08 02:41:33;;;;;;;16.37;11.13;;;1.20;99.90;;;;;;5029582;28;20267;-60
2022/01/08 02:43:59;;;;;;;16.03;11.10;;;1.20;99.90;;;;;;5029883;28;20187;-60
2022/01/08 02:46:28;;;;;;;18.97;11.63;;;1.20;99.90;;;;;;5029879;28;20182;-60
2022/01/08 02:48:53;;;;;;;15.27;10.65;;;1.10;99.90;;;;;;5030324;28;20179;-60
2022/01/08 02:51:19;;;;;;;18.33;11.23;;;1.10;99.90;;;;;;5032998;28;20195;-60
2022/01/08 02:53:44;;;;;;;15.70;10.20;;;1.00;99.90;;;;;;5030086;28;20689;-53
2022/01/08 02:56:10;;;;;;;15.90;10.53;;;1.10;99.90;;;;;;5029492;28;20214;-60
2022/01/08 02:58:36;;;;;;;13.33;9.50;;;1.10;99.90;;;;;;5030118;28;20182;-60
2022/01/08 03:01:01;;;;;;;15.80;11.10;;;1.00;99.90;;;;;;5038581;28;20206;-60
2022/01/08 03:03:27;;;;;;;17.63;9.73;;;1.00;99.90;;;;;;5029437;28;20187;-61
2022/01/08 03:05:52;;;;;;;16.10;11.33;;;0.90;99.90;;;;;;5028099;28;20178;-61
2022/01/08 03:08:18;;;;;;;17.80;10.37;;;0.80;99.90;;;;;;5048569;28;20984;-62
2022/01/08 03:10:43;;;;;;;18.17;10.57;;;0.80;99.90;;;;;;5035797;28;20675;-61
2022/01/08 03:13:09;;;;;;;19.80;10.80;;;0.70;99.90;;;;;;5027809;28;20288;-59
2022/01/08 03:15:37;;;;;;;17.57;11.33;;;0.70;99.90;;;;;;5042158;28;20183;-60
2022/01/08 03:18:03;;;;;;;18.20;10.82;;;0.70;99.90;;;;;;5029258;28;20449;-61
2022/01/08 03:20:29;;;;;;;15.82;9.45;;;0.60;99.90;;;;;;5029661;28;20679;-60
2022/01/08 03:23:02;;;;;;;15.43;10.45;;;0.60;99.90;;;;;;5028388;28;20179;-60
2022/01/08 03:25:28;;;;;;;14.95;11.30;;;0.70;99.90;;;;;;5028406;28;20222;-61
2022/01/08 03:27:54;;;;;;;16.83;11.40;;;0.70;99.90;;;;;;5028091;28;20183;-60
2022/01/08 03:30:20;;;;;;;15.10;10.20;;;0.80;99.90;;;;;;5027619;28;20183;-61
2022/01/08 03:32:46;;;;;;;17.43;11.07;;;0.70;99.90;;;;;;5026450;28;20680;-61
2022/01/08 03:35:12;;;;;;;15.70;10.40;;;0.60;99.90;;;;;;5029056;28;20179;-61
2022/01/08 03:37:37;;;;;;;15.13;10.30;;;0.50;99.90;;;;;;5026463;28;20186;-61
2022/01/08 03:40:05;;;;;;;18.63;11.03;;;0.50;99.90;;;;;;5029774;28;20877;-61
2022/01/08 03:42:31;;;;;;;13.93;9.85;;;0.50;99.90;;;;;;5028553;28;20214;-61
2022/01/08 03:44:56;;;;;;;14.30;10.13;;;0.40;99.90;;;;;;5028590;28;20550;-61
2022/01/08 03:49:54;;;;;;;15.60;9.70;;;0.50;99.90;;;;;;5036743;28;20250;-61
2022/01/08 03:52:20;;;;;;;18.92;10.82;;;0.50;99.90;;;;;;5031895;28;20199;-61
2022/01/08 03:54:46;;;;;;;18.13;10.30;;;0.50;99.90;;;;;;5027493;28;20190;-60
2022/01/08 03:57:12;;;;;;;16.67;9.77;;;0.50;99.90;;;;;;5033684;28;20199;-61
2022/01/08 03:59:37;;;;;;;15.60;9.67;;;0.60;99.90;;;;;;5029034;28;20347;-61
2022/01/08 04:02:04;;;;;;;14.70;10.10;;;0.60;99.90;;;;;;5031912;28;20253;-61
2022/01/08 04:04:30;;;;;;;16.20;11.00;;;0.70;99.90;;;;;;5033178;28;20445;-61
2022/01/08 04:06:55;;;;;;;14.00;9.70;;;0.70;99.90;;;;;;5039533;28;20178;-61
2022/01/08 04:09:21;;;;;;;15.27;9.63;;;0.70;99.90;;;;;;5038403;28;20183;-61
2022/01/08 04:11:46;;;;;;;14.77;9.83;;;0.70;99.90;;;;;;5036912;28;20255;-62
2022/01/08 04:14:14;;;;;;;16.83;11.23;;;0.80;99.90;;;;;;5033787;28;20707;-61
2022/01/08 04:16:43;;;;;;;16.67;9.52;;;0.80;99.90;;;;;;5034843;28;20194;-61
2022/01/08 04:19:09;;;;;;;14.13;8.70;;;0.80;99.90;;;;;;5030646;28;20217;-60
2022/01/08 04:24:06;;;;;;;16.60;9.83;;;1.00;99.90;;;;;;5026624;28;20298;-60
2022/01/08 04:26:31;;;;;;;15.55;10.00;;;1.10;99.90;;;;;;5021420;28;20183;-60
2022/01/08 04:28:57;;;;;;;15.03;10.80;;;1.20;99.90;;;;;;5027365;28;20761;-60
2022/01/08 04:31:24;;;;;;;14.00;10.10;;;1.20;99.90;;;;;;5027059;28;20218;-60
2022/01/08 04:33:50;;;;;;;16.05;10.50;;;1.20;99.90;;;;;;5027063;28;20179;-60
2022/01/08 04:36:16;;;;;;;16.08;10.68;;;1.30;99.90;;;;;;5033683;28;20261;-60
2022/01/08 04:38:42;;;;;;;13.50;9.82;;;1.40;99.90;;;;;;5042243;28;20178;-60
2022/01/08 04:41:08;;;;;;;14.43;9.50;;;1.50;99.90;;;;;;5034940;28;20222;-60
2022/01/08 04:43:37;;;;;;;13.90;9.87;;;1.50;99.90;;;;;;5026554;28;20194;-61
2022/01/08 04:46:03;;;;;;;14.45;9.98;;;1.50;99.90;;;;;;5026657;28;20191;-61
2022/01/08 04:48:28;;;;;;;13.23;9.05;;;1.60;99.90;;;;;;5028666;28;20183;-60
2022/01/08 04:50:54;;;;;;;12.03;9.40;;;1.60;99.90;;;;;;5033362;28;20246;-60
2022/01/08 04:53:20;;;;;;;14.17;10.00;;;1.60;99.90;;;;;;5028412;28;20569;-60
2022/01/08 04:55:46;;;;;;;12.67;8.53;;;1.70;99.90;;;;;;5031163;28;20206;-63
2022/01/08 04:58:11;;;;;;;11.85;8.77;;;1.70;99.90;;;;;;5030342;28;20187;-61
2022/01/08 05:00:37;;;;;;;11.60;7.70;;;1.70;99.90;;;;;;5031652;28;20210;-55
2022/01/08 05:03:03;;;;;;;11.80;8.27;;;1.70;99.90;;;;;;5029892;28;20187;-60
2022/01/08 05:05:28;;;;;;;12.27;8.83;;;1.70;99.90;;;;;;5029531;28;20183;-60
2022/01/08 05:07:54;;;;;;;11.00;9.17;;;1.70;99.90;;;;;;5031013;28;20597;-60
2022/01/08 05:10:20;;;;;;;12.30;8.40;;;1.70;99.90;;;;;;5030505;28;20236;-60
2022/01/08 05:12:45;;;;;;;10.40;7.90;;;1.80;99.90;;;;;;5030734;28;20436;-60
2022/01/08 05:15:11;;;;;;;11.80;8.00;;;1.80;99.90;;;;;;5028412;28;20190;-56
2022/01/08 05:17:39;;;;;;;10.55;7.93;;;1.80;99.90;;;;;;5030697;28;20529;-60
2022/01/08 05:20:09;;;;;;;11.30;7.18;;;1.90;99.90;;;;;;5028252;28;20207;-60
2022/01/08 05:25:17;;;;;;;9.77;7.20;;;1.90;99.90;;;;;;5045095;28;20269;-60
2022/01/08 05:27:43;;;;;;;8.52;6.35;;;2.00;99.90;;;;;;5043633;28;20186;-60
2022/01/08 05:30:10;;;;;;;9.00;6.90;;;2.00;99.90;;;;;;5032018;28;20190;-60
2022/01/08 05:32:37;;;;;;;8.05;6.30;;;2.10;99.90;;;;;;5036653;28;20258;-60
2022/01/08 05:35:02;;;;;;;8.18;5.97;;;2.10;99.90;;;;;;5027064;28;20191;-61
2022/01/08 05:37:28;;;;;;;10.67;7.00;;;2.20;99.90;;;;;;5031652;28;20244;-60
2022/01/08 05:39:54;;;;;;;10.60;7.10;;;2.10;99.90;;;;;;5034420;28;20283;-60
2022/01/08 05:42:19;;;;;;;9.00;6.88;;;2.20;99.90;;;;;;5035506;28;20214;-60
2022/01/08 05:44:45;;;;;;;9.80;6.70;;;2.20;99.90;;;;;;5035308;28;20187;-60
2022/01/08 05:47:11;;;;;;;11.20;6.70;;;2.30;99.90;;;;;;5042944;28;20221;-60
2022/01/08 05:49:36;;;;;;;9.00;6.40;;;2.30;99.90;;;;;;5036098;28;20305;-60
2022/01/08 05:52:03;;;;;;;9.67;7.50;;;2.30;99.90;;;;;;5048911;28;20444;-60
2022/01/08 05:54:28;;;;;;;9.73;6.90;;;2.30;99.90;;;;;;5030748;28;20274;-59
2022/01/08 05:56:55;;;;;;;11.40;8.00;;;2.30;99.90;;;;;;5034344;28;20285;-60
2022/01/08 05:59:22;;;;;;;10.43;8.10;;;2.30;99.90;;;;;;5045526;28;20179;-60
2022/01/08 06:01:48;;;;;;;9.75;7.57;;;2.30;99.90;;;;;;5030536;28;20669;-59
2022/01/08 06:04:13;;;;;;;12.90;8.40;;;2.30;99.90;;;;;;5030002;28;20186;-60
2022/01/08 06:06:40;;;;;;;12.40;9.20;;;2.40;99.90;;;;;;5030096;28;20241;-60
2022/01/08 06:09:06;;;;;;;11.60;8.60;;;2.40;99.90;;;;;;5028660;28;20262;-59
2022/01/08 06:11:32;;;;;;;11.43;8.50;;;2.40;99.90;;;;;;5043539;28;20225;-60
2022/01/08 06:13:58;;;;;;;12.25;9.25;;;2.40;99.90;;;;;;5033800;28;20194;-60
2022/01/08 06:16:23;;;;;;;13.40;9.20;;;2.40;99.90;;;;;;5042873;28;20637;-60
2022/01/08 06:18:49;;;;;;;13.53;8.93;;;2.50;99.90;;;;;;5028480;28;20183;-61
2022/01/08 06:21:14;;;;;;;13.20;9.43;;;2.50;99.90;;;;;;5031828;28;20202;-54
2022/01/08 06:23:40;;;;;;;14.87;10.67;;;2.50;99.90;;;;;;5030935;28;20183;-60
2022/01/08 06:26:06;;;;;;;14.50;10.40;;;2.40;99.90;;;;;;5036000;28;20206;-60
2022/01/08 06:28:32;;;;;;;13.23;9.05;;;2.40;99.90;;;;;;5027553;28;20261;-60
2022/01/08 06:30:58;;;;;;;13.20;9.05;;;2.50;99.90;;;;;;5030622;28;20205;-60
2022/01/08 06:33:24;;;;;;;10.67;8.47;;;2.50;99.90;;;;;;5035371;28;20187;-59
2022/01/08 06:35:51;;;;;;;14.57;9.73;;;2.40;99.90;;;;;;5032419;28;20229;-59
2022/01/08 06:38:20;;;;;;;12.10;8.73;;;2.40;99.90;;;;;;5028283;28;20807;-60
2022/01/08 06:40:46;;;;;;;11.80;9.10;;;2.40;99.90;;;;;;5040682;28;20257;-60
2022/01/08 06:43:12;;;;;;;12.13;9.65;;;2.40;99.90;;;;;;5030189;28;20206;-60
2022/01/08 06:45:37;;;;;;;12.23;8.60;;;2.40;99.90;;;;;;5035138;28;20191;-60
2022/01/08 06:48:03;;;;;;;14.60;11.03;;;2.40;99.90;;;;;;5026216;28;20440;-60
2022/01/08 06:50:28;;;;;;;13.00;8.77;;;2.40;99.90;;;;;;5038147;28;20400;-61
2022/01/08 06:52:55;;;;;;;13.30;9.47;;;2.40;99.90;;;;;;5034598;28;20638;-61
2022/01/08 06:55:21;;;;;;;13.07;9.40;;;2.40;99.90;;;;;;5039237;28;20261;-60
2022/01/08 06:57:47;;;;;;;13.47;10.20;;;2.40;99.90;;;;;;5027481;28;20576;-61
2022/01/08 07:00:12;;;;;;;13.80;10.43;;;2.50;99.90;;;;;;5034381;28;20431;-54
2022/01/08 07:02:38;;;;;;;10.80;9.00;;;2.50;99.90;;;;;;5027832;28;20210;-61
2022/01/08 07:05:04;;;;;;;13.67;8.73;;;2.50;99.90;;;;;;5029452;28;20436;-61
2022/01/08 07:07:29;;;;;;;12.73;9.33;;;2.60;99.90;;;;;;5028623;28;20175;-59
2022/01/08 07:09:55;;;;;;;12.10;10.20;;;2.60;99.90;;;;;;5024840;28;20440;-61
2022/01/08 07:12:21;;;;;;;13.60;9.97;;;2.70;99.90;;;;;;5027875;28;20268;-61
2022/01/08 07:14:46;;;;;;;15.80;10.20;;;2.70;99.90;;;;;;5044746;28;20757;-61
2022/01/08 07:17:12;;;;;;;12.53;9.37;;;2.70;99.90;;;;;;5038802;28;20185;-62
2022/01/08 07:19:37;;;;;;;12.63;9.40;;;2.70;99.90;;;;;;5049658;28;20210;-61
2022/01/08 07:22:03;;;;;;;14.93;10.40;;;2.80;99.90;;;;;;5033455;28;20222;-61
2022/01/08 07:24:29;;;;;;;12.53;9.80;;;2.80;99.90;;;;;;5035390;28;20183;-62
2022/01/08 07:26:54;;;;;;;26.83;20.80;;;2.90;99.90;;;;;;5028739;28;20179;-60
2022/01/08 07:29:20;;;;;;;55.50;38.50;;;2.90;99.90;;;;;;5027217;28;20696;-61
2022/01/08 07:31:45;;;;;;;17.10;12.43;;;2.90;99.90;;;;;;5035695;28;20308;-61
2022/01/08 07:34:11;;;;;;;14.90;11.23;;;2.90;99.90;;;;;;5033127;28;20196;-62
2022/01/08 07:36:36;;;;;;;14.30;10.00;;;2.90;99.90;;;;;;5037356;28;20186;-62
2022/01/08 07:39:02;;;;;;;13.73;10.07;;;3.00;99.90;;;;;;5024025;28;20195;-61
2022/01/08 07:41:28;;;;;;;14.33;9.57;;;3.00;99.90;;;;;;5032925;28;20205;-61
2022/01/08 07:43:54;;;;;;;13.43;10.00;;;3.10;99.90;;;;;;5021768;28;20950;-61
2022/01/08 07:46:20;;;;;;;13.23;10.35;;;3.10;99.90;;;;;;5024539;28;20182;-61
2022/01/08 07:48:45;;;;;;;12.47;9.57;;;3.20;99.90;;;;;;5032594;28;20205;-60
2022/01/08 07:51:11;;;;;;;13.07;9.23;;;3.30;99.90;;;;;;5026164;28;20962;-61
2022/01/08 07:53:37;;;;;;;14.00;10.40;;;3.20;99.90;;;;;;5040575;28;20178;-61
2022/01/08 07:56:02;;;;;;;14.10;10.50;;;3.30;99.90;;;;;;5037307;28;20198;-62
2022/01/08 07:58:28;;;;;;;14.10;10.33;;;3.30;99.90;;;;;;5019081;28;20222;-61
2022/01/08 08:00:53;;;;;;;21.43;11.80;;;3.20;99.90;;;;;;5027448;28;20213;-61
2022/01/08 08:03:20;;;;;;;15.53;11.47;;;3.20;99.90;;;;;;5035416;28;20186;-61
2022/01/08 08:05:46;;;;;;;12.68;10.40;;;3.20;99.90;;;;;;5035619;28;20182;-61
2022/01/08 08:08:19;;;;;;;15.60;11.03;;;3.20;99.90;;;;;;5028316;28;20982;-61
2022/01/08 08:10:50;;;;;;;13.00;10.23;;;3.30;99.90;;;;;;5035127;28;20257;-61
2022/01/08 08:13:20;;;;;;;11.48;9.18;;;3.20;99.90;;;;;;5028205;28;20520;-61
2022/01/08 08:15:46;;;;;;;13.32;10.32;;;3.10;99.90;;;;;;5021497;28;20846;-61
2022/01/08 08:18:12;;;;;;;14.20;10.40;;;3.00;99.90;;;;;;5021244;28;20297;-58
2022/01/08 08:20:38;;;;;;;15.63;10.40;;;3.10;99.90;;;;;;5025768;28;20325;-61
2022/01/08 08:23:04;;;;;;;14.73;10.00;;;3.20;99.90;;;;;;5034729;28;20182;-61
2022/01/08 08:25:30;;;;;;;13.33;10.30;;;3.20;99.90;;;;;;5038873;28;20517;-61
2022/01/08 08:27:56;;;;;;;15.07;10.90;;;3.20;99.90;;;;;;5028740;28;20175;-60
2022/01/08 08:30:21;;;;;;;13.10;10.07;;;3.10;99.90;;;;;;5027570;28;20421;-60
2022/01/08 08:32:48;;;;;;;13.30;9.57;;;3.10;99.90;;;;;;5039302;28;20192;-64
2022/01/08 08:35:14;;;;;;;12.18;9.88;;;3.20;99.90;;;;;;5030367;28;20191;-62
2022/01/08 08:37:40;;;;;;;12.73;9.82;;;3.20;99.90;;;;;;5030059;28;20257;-61
2022/01/08 08:40:08;;;;;;;13.85;9.63;;;3.20;99.90;;;;;;5031284;28;20187;-61
2022/01/08 08:42:34;;;;;;;13.77;10.35;;;3.20;99.90;;;;;;5028788;28;20211;-61
2022/01/08 08:45:00;;;;;;;13.10;9.40;;;3.20;99.90;;;;;;5035808;28;20186;-61
2022/01/08 08:47:26;;;;;;;12.43;9.63;;;3.20;99.90;;;;;;5041219;28;20205;-61
2022/01/08 08:49:51;;;;;;;16.23;10.10;;;3.20;99.90;;;;;;5030847;28;20457;-61
2022/01/08 08:52:17;;;;;;;14.73;9.93;;;3.20;99.90;;;;;;5031410;28;20179;-62
2022/01/08 08:54:43;;;;;;;12.20;9.37;;;3.10;99.90;;;;;;5032474;28;20269;-62
2022/01/08 08:57:10;;;;;;;12.73;9.00;;;3.20;99.90;;;;;;5031995;28;20429;-61
2022/01/08 08:59:36;;;;;;;12.07;9.40;;;3.20;99.90;;;;;;5031361;28;20826;-61
2022/01/08 09:02:02;;;;;;;13.95;9.68;;;3.20;99.90;;;;;;5029475;28;20219;-62
2022/01/08 09:04:28;;;;;;;14.53;9.70;;;3.20;99.90;;;;;;5030586;28;20232;-61
2022/01/08 09:06:53;;;;;;;12.53;9.47;;;3.20;99.90;;;;;;5031526;28;20209;-62
2022/01/08 09:09:20;;;;;;;13.53;9.97;;;3.30;99.90;;;;;;5029714;28;20302;-62
2022/01/08 09:11:45;;;;;;;13.65;10.35;;;3.40;99.90;;;;;;5030905;28;20592;-61
2022/01/08 09:14:11;;;;;;;14.43;10.10;;;3.40;99.90;;;;;;5030936;28;20186;-62
2022/01/08 09:16:47;;;;;;;14.07;10.27;;;3.40;99.90;;;;;;5047691;28;20265;-62
2022/01/08 09:19:12;;;;;;;12.23;9.60;;;3.50;99.90;;;;;;5040340;28;20532;-60
2022/01/08 09:21:38;;;;;;;14.77;11.20;;;3.60;99.90;;;;;;5032688;28;20211;-63
2022/01/08 09:24:04;;;;;;;13.93;10.20;;;3.60;99.90;;;;;;5030812;28;20206;-62
2022/01/08 09:26:29;;;;;;;15.47;10.10;;;3.70;99.90;;;;;;5032623;28;20633;-63
2022/01/08 09:28:55;;;;;;;15.70;12.10;;;3.70;99.90;;;;;;5031068;28;20456;-62
2022/01/08 09:31:20;;;;;;;18.33;13.00;;;3.80;99.90;;;;;;5030397;28;20191;-60
2022/01/08 09:33:46;;;;;;;17.93;12.80;;;3.80;99.90;;;;;;5030027;28;20867;-62
2022/01/08 09:36:12;;;;;;;18.00;12.90;;;3.80;99.90;;;;;;5027877;28;20195;-61
2022/01/08 09:38:37;;;;;;;16.20;12.90;;;3.90;99.90;;;;;;5027587;28;20187;-60
2022/01/08 09:41:03;;;;;;;16.30;13.10;;;3.80;99.90;;;;;;5028913;28;20203;-63
2022/01/08 09:43:29;;;;;;;17.47;12.57;;;3.90;99.90;;;;;;5046679;28;21354;-62
2022/01/08 09:45:54;;;;;;;17.00;12.60;;;3.90;99.90;;;;;;5043685;28;20334;-63
2022/01/08 09:48:20;;;;;;;19.63;13.50;;;3.90;99.90;;;;;;5042235;28;20244;-62
2022/01/08 09:50:45;;;;;;;17.97;12.30;;;4.00;99.90;;;;;;5034933;28;20227;-61
2022/01/08 09:53:11;;;;;;;17.17;12.23;;;4.00;99.90;;;;;;5034039;28;20188;-62
2022/01/08 09:55:37;;;;;;;17.83;13.17;;;3.80;99.90;;;;;;5037461;28;21128;-61
2022/01/08 09:58:03;;;;;;;17.50;12.30;;;4.00;99.90;;;;;;5033931;28;20521;-62
2022/01/08 10:00:31;;;;;;;16.90;12.53;;;4.00;99.90;;;;;;5033502;28;20426;-62
2022/01/08 10:03:31;;;;;;;18.25;12.32;;;4.00;99.90;;;;;;5026813;28;20506;-61
2022/01/08 10:05:58;;;;;;;18.05;12.32;;;3.90;99.90;;;;;;5027768;28;20759;-62
2022/01/08 10:08:29;;;;;;;14.43;11.63;;;3.90;99.90;;;;;;5028250;28;20243;-62
2022/01/08 10:10:59;;;;;;;17.15;11.93;;;4.00;99.90;;;;;;5022616;28;20299;-61
2022/01/08 10:19:29;;;;;;;20.27;13.35;;;3.90;99.90;;;;;;5033906;28;20719;-62
2022/01/08 10:21:55;;;;;;;18.58;13.18;;;3.90;99.90;;;;;;5025902;28;20207;-62
2022/01/08 10:24:27;;;;;;;17.85;13.32;;;3.70;99.90;;;;;;5024014;28;20187;-61
2022/01/08 10:27:05;;;;;;;18.20;13.27;;;3.70;99.90;;;;;;5024755;28;20186;-62
2022/01/08 10:29:30;;;;;;;18.17;13.13;;;3.70;99.90;;;;;;5030371;28;20183;-62
2022/01/08 10:31:56;;;;;;;21.93;15.03;;;3.80;99.90;;;;;;5029170;28;21103;-64
2022/01/08 10:34:24;;;;;;;21.10;14.07;;;3.80;99.90;;;;;;5022461;28;20638;-64
2022/01/08 10:37:04;;;;;;;21.08;13.85;;;3.90;99.90;;;;;;5031908;28;20868;-65
2022/01/08 10:39:33;;;;;;;20.48;14.68;;;3.90;99.90;;;;;;5044901;28;20581;-64
2022/01/08 10:42:08;;;;;;;19.02;13.70;;;3.90;99.90;;;;;;5029368;28;20791;-65
2022/01/08 10:44:34;;;;;;;19.17;12.52;;;3.90;99.90;;;;;;5045676;28;20259;-64
2022/01/08 10:47:05;;;;;;;23.23;13.70;;;3.90;99.90;;;;;;5047795;28;20198;-64
2022/01/08 10:49:43;;;;;;;18.50;12.98;;;3.90;99.90;;;;;;5042809;28;20345;-64
2022/01/08 10:52:12;;;;;;;21.33;14.20;;;3.90;99.90;;;;;;5024644;28;20198;-64
2022/01/08 10:54:39;;;;;;;20.20;14.77;;;3.90;99.90;;;;;;5022891;28;20186;-65
2022/01/08 10:57:07;;;;;;;18.95;13.43;;;3.90;99.90;;;;;;5030614;28;20270;-62
2022/01/08 10:59:34;;;;;;;22.08;14.77;;;3.90;99.90;;;;;;5032044;28;20257;-62
2022/01/08 11:02:07;;;;;;;22.55;14.50;;;3.80;99.90;;;;;;5029165;28;20297;-62
2022/01/08 11:04:35;;;;;;;19.95;13.07;;;3.70;99.90;;;;;;5037112;28;20257;-62
2022/01/08 11:07:05;;;;;;;18.50;14.27;;;3.60;99.90;;;;;;5028743;28;20187;-62
2022/01/08 11:09:31;;;;;;;19.90;14.07;;;3.60;99.90;;;;;;5029040;28;20250;-65
2022/01/08 11:11:59;;;;;;;19.95;13.90;;;3.40;99.90;;;;;;5021264;28;20179;-63
2022/01/08 11:14:47;;;;;;;20.05;13.90;;;3.40;99.90;;;;;;5026446;28;20201;-62
2022/01/08 11:17:17;;;;;;;21.08;14.02;;;3.50;99.90;;;;;;5029893;28;20167;-63
2022/01/08 11:19:46;;;;;;;22.15;15.18;;;3.50;99.90;;;;;;5026920;28;20209;-65
2022/01/08 11:22:14;;;;;;;21.15;14.52;;;3.50;99.90;;;;;;5024637;28;20201;-65
2022/01/08 11:24:50;;;;;;;20.58;14.05;;;3.40;99.90;;;;;;5039592;28;20205;-65
2022/01/08 11:27:20;;;;;;;20.80;14.82;;;3.20;99.90;;;;;;5042707;28;21060;-66
2022/01/08 11:30:06;;;;;;;22.33;15.27;;;3.20;99.90;;;;;;5047979;28;20639;-62
2022/01/08 11:32:35;;;;;;;22.02;14.88;;;3.10;99.90;;;;;;5047014;28;20328;-63
2022/01/08 11:35:03;;;;;;;23.65;15.85;;;3.00;99.90;;;;;;5035681;28;20210;-63
2022/01/08 11:37:30;;;;;;;22.88;15.13;;;3.00;99.90;;;;;;5026832;28;20224;-63
2022/01/08 11:39:59;;;;;;;24.63;16.98;;;3.00;99.90;;;;;;5029017;28;20186;-63
2022/01/08 11:42:26;;;;;;;22.90;15.60;;;3.10;99.90;;;;;;5028306;28;20546;-60
2022/01/08 11:44:55;;;;;;;21.17;15.63;;;3.10;99.90;;;;;;5036447;28;20209;-63
2022/01/08 11:47:22;;;;;;;25.02;15.75;;;3.10;99.90;;;;;;5028473;28;20217;-64
2022/01/08 11:49:48;;;;;;;21.45;16.35;;;3.10;99.90;;;;;;5024267;28;20234;-67
2022/01/08 11:52:21;;;;;;;24.23;17.55;;;3.20;99.90;;;;;;5023601;28;20198;-64
2022/01/08 11:54:48;;;;;;;24.77;16.55;;;3.20;99.90;;;;;;5024198;28;20194;-64
2022/01/08 11:57:26;;;;;;;24.17;15.65;;;3.10;99.90;;;;;;5023811;28;20183;-66
2022/01/08 11:59:58;;;;;;;25.92;16.73;;;3.10;99.90;;;;;;5028455;28;20641;-64
2022/01/08 12:02:43;;;;;;;23.95;17.85;;;3.00;99.90;;;;;;5025124;28;20283;-62
2022/01/08 12:05:13;;;;;;;23.95;15.30;;;3.00;99.90;;;;;;5027812;28;20190;-66
2022/01/08 12:07:44;;;;;;;24.77;16.90;;;2.80;99.90;;;;;;5023127;28;20848;-65
2022/01/08 12:10:22;;;;;;;24.77;15.93;;;2.70;99.90;;;;;;5021114;28;20176;-66
2022/01/08 12:12:54;;;;;;;24.08;16.30;;;2.70;99.90;;;;;;5016265;28;20195;-64
2022/01/08 12:15:42;;;;;;;22.05;16.17;;;2.70;99.90;;;;;;5023974;28;20509;-66
2022/01/08 12:18:09;;;;;;;25.17;16.48;;;2.70;99.90;;;;;;5017266;28;20190;-65
2022/01/08 12:20:39;;;;;;;23.30;16.15;;;2.70;99.90;;;;;;5011542;28;20218;-66
2022/01/08 12:23:30;;;;;;;23.40;16.17;;;2.70;99.90;;;;;;5016803;28;20713;-69
2022/01/08 12:25:57;;;;;;;28.67;17.48;;;2.70;99.90;;;;;;5008060;28;20689;-64
2022/01/08 12:28:53;;;;;;;25.48;17.02;;;2.70;99.90;;;;;;5015821;28;20179;-64
2022/01/08 12:31:44;;;;;;;26.50;16.05;;;2.80;99.90;;;;;;5026091;28;20191;-64
2022/01/08 12:34:29;;;;;;;27.38;17.58;;;2.70;99.90;;;;;;5046770;28;20190;-65
2022/01/08 12:37:11;;;;;;;24.20;17.25;;;2.80;99.90;;;;;;5028816;28;20311;-65
2022/01/08 12:39:48;;;;;;;23.70;16.63;;;2.80;99.90;;;;;;5029138;28;20175;-65
2022/01/08 12:42:19;;;;;;;24.20;15.63;;;2.80;99.90;;;;;;5040998;28;20291;-60
2022/01/08 12:45:03;;;;;;;25.77;17.88;;;2.70;99.90;;;;;;5045654;28;20187;-64
2022/01/08 12:48:04;;;;;;;24.40;16.77;;;2.70;99.90;;;;;;5038294;28;20259;-64
2022/01/08 12:50:32;;;;;;;22.23;15.75;;;2.70;99.90;;;;;;5000609;28;20372;-64
2022/01/08 12:53:06;;;;;;;26.02;17.27;;;2.70;99.90;;;;;;5038157;28;20223;-64
2022/01/08 12:55:42;;;;;;;26.88;18.13;;;2.80;99.90;;;;;;5024866;28;20235;-65
2022/01/08 12:58:25;;;;;;;24.27;16.35;;;2.80;99.90;;;;;;5028037;28;20348;-65
2022/01/08 13:01:04;;;;;;;23.13;15.43;;;2.80;99.90;;;;;;5011458;28;20175;-63
2022/01/08 13:03:37;;;;;;;29.92;19.17;;;2.80;99.90;;;;;;5027049;28;20186;-66
2022/01/08 13:06:08;;;;;;;29.55;17.85;;;2.80;99.90;;;;;;5037206;28;20641;-66
2022/01/08 13:08:34;;;;;;;26.88;18.70;;;2.80;99.90;;;;;;5030218;28;20256;-66
2022/01/08 13:11:06;;;;;;;22.70;16.25;;;2.80;99.90;;;;;;5036501;28;20195;-66
2022/01/08 13:13:46;;;;;;;25.98;16.90;;;2.80;99.90;;;;;;5044124;28;20303;-67
2022/01/08 13:16:14;;;;;;;23.90;16.25;;;2.80;99.90;;;;;;5039173;28;20182;-65